sensor_id;sensor_type;location;lat;lon;timestamp;P1;durP1;ratioP1;P2;durP2;ratioP2
13122;SDS011;6627;50.920;12.050;2024-02-28T00:00:34;118.37;;;43.73;;
13122;SDS011;6627;50.920;12.050;2024-02-28T00:03:02;114.60;;;45.43;;
13122;SDS011;6627;50.920;12.050;2024-02-28T00:05:32;112.67;;;44.57;;
13122;SDS011;6627;50.920;12.050;2024-02-28T00:08:01;115.37;;;45.13;;
13122;SDS011;6627;50.920;12.050;2024-02-28T00:10:31;102.97;;;43.83;;
13122;SDS011;6627;50.920;12.050;2024-02-28T00:13:00;107.80;;;44.80;;
13122;SDS011;6627;50.920;12.050;2024-02-28T00:15:28;110.23;;;43.63;;
13122;SDS011;6627;50.920;12.050;2024-02-28T00:17:55;105.20;;;43.40;;
13122;SDS011;6627;50.920;12.050;2024-02-28T00:20:23;103.90;;;44.07;;
13122;SDS011;6627;50.920;12.050;2024-02-28T00:22:52;109.63;;;43.27;;
13122;SDS011;6627;50.920;12.050;2024-02-28T00:25:20;112.00;;;43.80;;
13122;SDS011;6627;50.920;12.050;2024-02-28T00:27:52;117.37;;;43.33;;
13122;SDS011;6627;50.920;12.050;2024-02-28T00:30:22;110.23;;;44.13;;
13122;SDS011;6627;50.920;12.050;2024-02-28T00:32:52;113.47;;;42.67;;
13122;SDS011;6627;50.920;12.050;2024-02-28T00:35:22;106.30;;;42.30;;
13122;SDS011;6627;50.920;12.050;2024-02-28T00:37:50;107.93;;;42.50;;
13122;SDS011;6627;50.920;12.050;2024-02-28T00:40:17;98.80;;;42.00;;
13122;SDS011;6627;50.920;12.050;2024-02-28T00:42:45;98.47;;;40.77;;
13122;SDS011;6627;50.920;12.050;2024-02-28T00:45:14;107.93;;;41.40;;
13122;SDS011;6627;50.920;12.050;2024-02-28T00:48:00;105.07;;;40.43;;
13122;SDS011;6627;50.920;12.050;2024-02-28T00:50:30;99.60;;;40.93;;
13122;SDS011;6627;50.920;12.050;2024-02-28T00:53:00;113.17;;;42.33;;
13122;SDS011;6627;50.920;12.050;2024-02-28T00:55:31;110.43;;;41.73;;
13122;SDS011;6627;50.920;12.050;2024-02-28T00:58:01;102.93;;;40.60;;
13122;SDS011;6627;50.920;12.050;2024-02-28T01:00:30;112.03;;;42.40;;
13122;SDS011;6627;50.920;12.050;2024-02-28T01:02:57;108.47;;;43.60;;
13122;SDS011;6627;50.920;12.050;2024-02-28T01:05:25;108.77;;;43.07;;
13122;SDS011;6627;50.920;12.050;2024-02-28T01:07:52;110.27;;;42.50;;
13122;SDS011;6627;50.920;12.050;2024-02-28T01:10:22;114.47;;;42.80;;
13122;SDS011;6627;50.920;12.050;2024-02-28T01:12:50;96.00;;;40.40;;
13122;SDS011;6627;50.920;12.050;2024-02-28T01:15:20;110.83;;;41.90;;
13122;SDS011;6627;50.920;12.050;2024-02-28T01:17:50;108.17;;;41.97;;
13122;SDS011;6627;50.920;12.050;2024-02-28T01:20:17;100.83;;;41.73;;
13122;SDS011;6627;50.920;12.050;2024-02-28T01:22:45;116.03;;;42.97;;
13122;SDS011;6627;50.920;12.050;2024-02-28T01:25:13;107.57;;;41.07;;
13122;SDS011;6627;50.920;12.050;2024-02-28T01:27:40;112.60;;;42.57;;
13122;SDS011;6627;50.920;12.050;2024-02-28T01:30:08;107.23;;;41.73;;
13122;SDS011;6627;50.920;12.050;2024-02-28T01:32:38;100.80;;;41.27;;
13122;SDS011;6627;50.920;12.050;2024-02-28T01:35:09;106.73;;;42.63;;
13122;SDS011;6627;50.920;12.050;2024-02-28T01:37:39;101.70;;;39.70;;
13122;SDS011;6627;50.920;12.050;2024-02-28T01:40:09;98.63;;;39.17;;
13122;SDS011;6627;50.920;12.050;2024-02-28T01:42:37;99.07;;;41.20;;
13122;SDS011;6627;50.920;12.050;2024-02-28T01:45:05;101.83;;;40.23;;
13122;SDS011;6627;50.920;12.050;2024-02-28T01:47:34;98.97;;;40.17;;
13122;SDS011;6627;50.920;12.050;2024-02-28T01:50:03;102.27;;;40.90;;
13122;SDS011;6627;50.920;12.050;2024-02-28T01:52:32;101.37;;;41.53;;
13122;SDS011;6627;50.920;12.050;2024-02-28T01:55:03;94.90;;;39.43;;
13122;SDS011;6627;50.920;12.050;2024-02-28T01:57:33;99.63;;;39.27;;
13122;SDS011;6627;50.920;12.050;2024-02-28T02:00:04;89.70;;;39.90;;
13122;SDS011;6627;50.920;12.050;2024-02-28T02:02:36;85.47;;;34.37;;
13122;SDS011;6627;50.920;12.050;2024-02-28T02:05:04;74.70;;;31.93;;
13122;SDS011;6627;50.920;12.050;2024-02-28T02:07:34;80.13;;;32.87;;
13122;SDS011;6627;50.920;12.050;2024-02-28T02:10:02;76.30;;;31.60;;
13122;SDS011;6627;50.920;12.050;2024-02-28T02:12:33;70.53;;;29.77;;
13122;SDS011;6627;50.920;12.050;2024-02-28T02:15:20;62.73;;;28.33;;
13122;SDS011;6627;50.920;12.050;2024-02-28T02:17:50;55.77;;;26.73;;
13122;SDS011;6627;50.920;12.050;2024-02-28T02:20:19;65.27;;;29.40;;
13122;SDS011;6627;50.920;12.050;2024-02-28T02:22:51;64.47;;;28.00;;
13122;SDS011;6627;50.920;12.050;2024-02-28T02:25:22;60.43;;;27.00;;
13122;SDS011;6627;50.920;12.050;2024-02-28T02:27:50;62.70;;;27.47;;
13122;SDS011;6627;50.920;12.050;2024-02-28T02:30:17;57.67;;;27.30;;
13122;SDS011;6627;50.920;12.050;2024-02-28T02:33:02;58.30;;;24.90;;
13122;SDS011;6627;50.920;12.050;2024-02-28T02:35:29;64.70;;;26.97;;
13122;SDS011;6627;50.920;12.050;2024-02-28T02:38:01;59.47;;;25.27;;
13122;SDS011;6627;50.920;12.050;2024-02-28T02:40:31;61.47;;;27.73;;
13122;SDS011;6627;50.920;12.050;2024-02-28T02:42:58;67.03;;;27.37;;
13122;SDS011;6627;50.920;12.050;2024-02-28T02:45:28;73.93;;;29.73;;
13122;SDS011;6627;50.920;12.050;2024-02-28T02:47:55;72.90;;;28.17;;
13122;SDS011;6627;50.920;12.050;2024-02-28T02:50:22;75.80;;;29.80;;
13122;SDS011;6627;50.920;12.050;2024-02-28T02:52:49;71.97;;;29.73;;
13122;SDS011;6627;50.920;12.050;2024-02-28T02:55:18;77.00;;;29.47;;
13122;SDS011;6627;50.920;12.050;2024-02-28T02:57:45;76.57;;;30.90;;
13122;SDS011;6627;50.920;12.050;2024-02-28T03:00:13;88.37;;;32.37;;
13122;SDS011;6627;50.920;12.050;2024-02-28T03:02:41;84.83;;;31.07;;
13122;SDS011;6627;50.920;12.050;2024-02-28T03:05:11;89.60;;;32.07;;
13122;SDS011;6627;50.920;12.050;2024-02-28T03:07:38;86.37;;;32.07;;
13122;SDS011;6627;50.920;12.050;2024-02-28T03:10:06;83.27;;;31.17;;
13122;SDS011;6627;50.920;12.050;2024-02-28T03:12:36;93.97;;;33.07;;
13122;SDS011;6627;50.920;12.050;2024-02-28T03:15:03;85.87;;;33.37;;
13122;SDS011;6627;50.920;12.050;2024-02-28T03:17:32;89.53;;;33.23;;
13122;SDS011;6627;50.920;12.050;2024-02-28T03:20:00;85.40;;;32.27;;
13122;SDS011;6627;50.920;12.050;2024-02-28T03:22:28;90.23;;;31.60;;
13122;SDS011;6627;50.920;12.050;2024-02-28T03:24:58;83.60;;;32.00;;
13122;SDS011;6627;50.920;12.050;2024-02-28T03:27:28;86.40;;;31.73;;
13122;SDS011;6627;50.920;12.050;2024-02-28T03:29:57;94.03;;;31.53;;
13122;SDS011;6627;50.920;12.050;2024-02-28T03:32:24;90.07;;;32.10;;
13122;SDS011;6627;50.920;12.050;2024-02-28T03:34:52;93.47;;;33.37;;
13122;SDS011;6627;50.920;12.050;2024-02-28T03:37:20;93.40;;;34.47;;
13122;SDS011;6627;50.920;12.050;2024-02-28T03:39:47;91.80;;;33.50;;
13122;SDS011;6627;50.920;12.050;2024-02-28T03:42:33;95.30;;;32.80;;
13122;SDS011;6627;50.920;12.050;2024-02-28T03:45:05;90.37;;;33.10;;
13122;SDS011;6627;50.920;12.050;2024-02-28T03:47:33;102.97;;;33.40;;
13122;SDS011;6627;50.920;12.050;2024-02-28T03:50:03;93.30;;;32.83;;
13122;SDS011;6627;50.920;12.050;2024-02-28T03:52:34;110.57;;;34.00;;
13122;SDS011;6627;50.920;12.050;2024-02-28T03:55:02;101.40;;;33.47;;
13122;SDS011;6627;50.920;12.050;2024-02-28T03:57:29;106.70;;;34.20;;
13122;SDS011;6627;50.920;12.050;2024-02-28T03:59:57;98.17;;;33.77;;
13122;SDS011;6627;50.920;12.050;2024-02-28T04:02:26;105.10;;;35.57;;
13122;SDS011;6627;50.920;12.050;2024-02-28T04:04:56;100.90;;;34.07;;
13122;SDS011;6627;50.920;12.050;2024-02-28T04:07:26;101.43;;;33.77;;
13122;SDS011;6627;50.920;12.050;2024-02-28T04:09:56;120.57;;;36.83;;
13122;SDS011;6627;50.920;12.050;2024-02-28T04:12:25;110.90;;;33.53;;
13122;SDS011;6627;50.920;12.050;2024-02-28T04:14:55;97.73;;;33.63;;
13122;SDS011;6627;50.920;12.050;2024-02-28T04:17:22;110.03;;;35.33;;
13122;SDS011;6627;50.920;12.050;2024-02-28T04:19:51;109.50;;;35.10;;
13122;SDS011;6627;50.920;12.050;2024-02-28T04:22:18;105.43;;;34.57;;
13122;SDS011;6627;50.920;12.050;2024-02-28T04:24:45;116.73;;;35.07;;
13122;SDS011;6627;50.920;12.050;2024-02-28T04:27:15;109.70;;;35.47;;
13122;SDS011;6627;50.920;12.050;2024-02-28T04:29:45;116.87;;;35.90;;
13122;SDS011;6627;50.920;12.050;2024-02-28T04:32:15;104.27;;;35.07;;
13122;SDS011;6627;50.920;12.050;2024-02-28T04:34:45;105.10;;;35.57;;
13122;SDS011;6627;50.920;12.050;2024-02-28T04:37:14;107.63;;;37.10;;
13122;SDS011;6627;50.920;12.050;2024-02-28T04:39:42;102.03;;;35.13;;
13122;SDS011;6627;50.920;12.050;2024-02-28T04:42:10;105.07;;;35.63;;
13122;SDS011;6627;50.920;12.050;2024-02-28T04:44:37;113.00;;;37.10;;
13122;SDS011;6627;50.920;12.050;2024-02-28T04:47:04;113.87;;;35.63;;
13122;SDS011;6627;50.920;12.050;2024-02-28T04:49:36;111.00;;;35.47;;
13122;SDS011;6627;50.920;12.050;2024-02-28T04:52:06;111.63;;;35.10;;
13122;SDS011;6627;50.920;12.050;2024-02-28T04:54:39;109.97;;;35.30;;
13122;SDS011;6627;50.920;12.050;2024-02-28T04:57:08;102.00;;;34.53;;
13122;SDS011;6627;50.920;12.050;2024-02-28T04:59:36;113.43;;;34.33;;
13122;SDS011;6627;50.920;12.050;2024-02-28T05:02:04;101.53;;;35.43;;
13122;SDS011;6627;50.920;12.050;2024-02-28T05:04:31;115.17;;;34.73;;
13122;SDS011;6627;50.920;12.050;2024-02-28T05:06:59;107.80;;;35.60;;
13122;SDS011;6627;50.920;12.050;2024-02-28T05:09:26;126.40;;;36.63;;
13122;SDS011;6627;50.920;12.050;2024-02-28T05:11:57;115.70;;;35.20;;
13122;SDS011;6627;50.920;12.050;2024-02-28T05:14:27;114.87;;;34.40;;
13122;SDS011;6627;50.920;12.050;2024-02-28T05:16:57;113.50;;;35.97;;
13122;SDS011;6627;50.920;12.050;2024-02-28T05:19:28;109.00;;;36.10;;
13122;SDS011;6627;50.920;12.050;2024-02-28T05:22:13;102.73;;;35.50;;
13122;SDS011;6627;50.920;12.050;2024-02-28T05:24:40;109.10;;;35.43;;
13122;SDS011;6627;50.920;12.050;2024-02-28T05:27:10;102.40;;;34.63;;
13122;SDS011;6627;50.920;12.050;2024-02-28T05:29:37;101.67;;;35.67;;
13122;SDS011;6627;50.920;12.050;2024-02-28T05:32:14;107.33;;;37.63;;
13122;SDS011;6627;50.920;12.050;2024-02-28T05:34:45;106.67;;;35.97;;
13122;SDS011;6627;50.920;12.050;2024-02-28T05:37:16;117.20;;;37.20;;
13122;SDS011;6627;50.920;12.050;2024-02-28T05:39:46;112.50;;;37.07;;
13122;SDS011;6627;50.920;12.050;2024-02-28T05:42:17;103.60;;;36.07;;
13122;SDS011;6627;50.920;12.050;2024-02-28T05:44:47;101.93;;;35.60;;
13122;SDS011;6627;50.920;12.050;2024-02-28T05:47:14;110.33;;;35.97;;
13122;SDS011;6627;50.920;12.050;2024-02-28T05:49:42;108.87;;;34.87;;
13122;SDS011;6627;50.920;12.050;2024-02-28T05:52:09;106.87;;;36.63;;
13122;SDS011;6627;50.920;12.050;2024-02-28T05:54:40;97.20;;;34.70;;
13122;SDS011;6627;50.920;12.050;2024-02-28T05:57:09;102.17;;;35.17;;
13122;SDS011;6627;50.920;12.050;2024-02-28T05:59:38;103.33;;;35.53;;
13122;SDS011;6627;50.920;12.050;2024-02-28T06:02:07;102.27;;;36.70;;
13122;SDS011;6627;50.920;12.050;2024-02-28T06:04:35;91.37;;;33.63;;
13122;SDS011;6627;50.920;12.050;2024-02-28T06:07:02;97.03;;;35.07;;
13122;SDS011;6627;50.920;12.050;2024-02-28T06:09:30;98.20;;;35.77;;
13122;SDS011;6627;50.920;12.050;2024-02-28T06:11:58;98.87;;;34.27;;
13122;SDS011;6627;50.920;12.050;2024-02-28T06:14:27;95.00;;;34.63;;
13122;SDS011;6627;50.920;12.050;2024-02-28T06:16:58;94.10;;;33.07;;
13122;SDS011;6627;50.920;12.050;2024-02-28T06:19:28;91.90;;;33.67;;
13122;SDS011;6627;50.920;12.050;2024-02-28T06:21:56;91.70;;;33.97;;
13122;SDS011;6627;50.920;12.050;2024-02-28T06:24:26;95.43;;;34.37;;
13122;SDS011;6627;50.920;12.050;2024-02-28T06:26:53;101.63;;;34.50;;
13122;SDS011;6627;50.920;12.050;2024-02-28T06:29:20;99.33;;;35.50;;
13122;SDS011;6627;50.920;12.050;2024-02-28T06:31:49;89.90;;;33.67;;
13122;SDS011;6627;50.920;12.050;2024-02-28T06:34:19;84.40;;;31.87;;
13122;SDS011;6627;50.920;12.050;2024-02-28T06:36:47;101.40;;;33.80;;
13122;SDS011;6627;50.920;12.050;2024-02-28T06:39:18;83.03;;;31.70;;
13122;SDS011;6627;50.920;12.050;2024-02-28T06:41:48;73.70;;;28.60;;
13122;SDS011;6627;50.920;12.050;2024-02-28T06:44:19;81.87;;;31.30;;
13122;SDS011;6627;50.920;12.050;2024-02-28T06:46:49;87.00;;;31.50;;
13122;SDS011;6627;50.920;12.050;2024-02-28T06:49:18;83.40;;;30.57;;
13122;SDS011;6627;50.920;12.050;2024-02-28T06:51:45;70.40;;;27.80;;
13122;SDS011;6627;50.920;12.050;2024-02-28T06:54:13;55.90;;;24.63;;
13122;SDS011;6627;50.920;12.050;2024-02-28T06:56:40;62.90;;;24.67;;
13122;SDS011;6627;50.920;12.050;2024-02-28T06:59:10;71.30;;;26.90;;
13122;SDS011;6627;50.920;12.050;2024-02-28T07:01:40;83.93;;;30.57;;
13122;SDS011;6627;50.920;12.050;2024-02-28T07:04:09;80.40;;;30.80;;
13122;SDS011;6627;50.920;12.050;2024-02-28T07:06:41;86.03;;;33.57;;
13122;SDS011;6627;50.920;12.050;2024-02-28T07:09:11;83.13;;;32.67;;
13122;SDS011;6627;50.920;12.050;2024-02-28T07:11:40;81.70;;;31.90;;
13122;SDS011;6627;50.920;12.050;2024-02-28T07:14:08;83.23;;;31.77;;
13122;SDS011;6627;50.920;12.050;2024-02-28T07:16:34;79.10;;;31.73;;
13122;SDS011;6627;50.920;12.050;2024-02-28T07:19:18;73.87;;;29.20;;
13122;SDS011;6627;50.920;12.050;2024-02-28T07:21:48;79.53;;;32.00;;
13122;SDS011;6627;50.920;12.050;2024-02-28T07:24:15;77.23;;;30.87;;
13122;SDS011;6627;50.920;12.050;2024-02-28T07:26:45;74.93;;;29.50;;
13122;SDS011;6627;50.920;12.050;2024-02-28T07:29:14;80.10;;;30.33;;
13122;SDS011;6627;50.920;12.050;2024-02-28T07:31:41;65.27;;;28.10;;
13122;SDS011;6627;50.920;12.050;2024-02-28T07:34:11;67.73;;;28.90;;
13122;SDS011;6627;50.920;12.050;2024-02-28T07:36:38;66.20;;;28.67;;
13122;SDS011;6627;50.920;12.050;2024-02-28T07:39:07;71.90;;;28.17;;
13122;SDS011;6627;50.920;12.050;2024-02-28T07:41:38;61.07;;;26.80;;
13122;SDS011;6627;50.920;12.050;2024-02-28T07:44:09;65.47;;;28.17;;
13122;SDS011;6627;50.920;12.050;2024-02-28T07:46:40;67.57;;;28.40;;
13122;SDS011;6627;50.920;12.050;2024-02-28T07:49:10;56.60;;;27.27;;
13122;SDS011;6627;50.920;12.050;2024-02-28T07:51:40;59.00;;;25.90;;
13122;SDS011;6627;50.920;12.050;2024-02-28T07:54:08;62.87;;;26.40;;
13122;SDS011;6627;50.920;12.050;2024-02-28T07:56:36;57.23;;;25.90;;
13122;SDS011;6627;50.920;12.050;2024-02-28T07:59:04;48.27;;;24.10;;
13122;SDS011;6627;50.920;12.050;2024-02-28T08:01:31;51.27;;;24.83;;
13122;SDS011;6627;50.920;12.050;2024-02-28T08:03:58;46.47;;;23.07;;
13122;SDS011;6627;50.920;12.050;2024-02-28T08:06:30;52.93;;;24.07;;
13122;SDS011;6627;50.920;12.050;2024-02-28T08:09:01;45.33;;;22.37;;
13122;SDS011;6627;50.920;12.050;2024-02-28T08:11:34;33.40;;;19.17;;
13122;SDS011;6627;50.920;12.050;2024-02-28T08:14:04;39.23;;;18.93;;
13122;SDS011;6627;50.920;12.050;2024-02-28T08:16:31;38.27;;;20.50;;
13122;SDS011;6627;50.920;12.050;2024-02-28T08:18:58;40.03;;;21.33;;
13122;SDS011;6627;50.920;12.050;2024-02-28T08:21:26;32.07;;;18.57;;
13122;SDS011;6627;50.920;12.050;2024-02-28T08:23:54;32.70;;;16.57;;
13122;SDS011;6627;50.920;12.050;2024-02-28T08:26:44;27.63;;;16.43;;
13122;SDS011;6627;50.920;12.050;2024-02-28T08:29:11;24.67;;;15.10;;
13122;SDS011;6627;50.920;12.050;2024-02-28T08:31:43;22.37;;;13.73;;
13122;SDS011;6627;50.920;12.050;2024-02-28T08:34:13;22.80;;;13.80;;
13122;SDS011;6627;50.920;12.050;2024-02-28T08:36:43;23.30;;;14.53;;
13122;SDS011;6627;50.920;12.050;2024-02-28T08:39:10;28.47;;;15.23;;
13122;SDS011;6627;50.920;12.050;2024-02-28T08:41:37;26.57;;;14.47;;
13122;SDS011;6627;50.920;12.050;2024-02-28T08:44:06;23.13;;;14.40;;
13122;SDS011;6627;50.920;12.050;2024-02-28T08:46:33;21.07;;;13.10;;
13122;SDS011;6627;50.920;12.050;2024-02-28T08:49:03;20.70;;;12.93;;
13122;SDS011;6627;50.920;12.050;2024-02-28T08:51:31;19.60;;;12.80;;
13122;SDS011;6627;50.920;12.050;2024-02-28T08:53:59;21.60;;;12.80;;
13122;SDS011;6627;50.920;12.050;2024-02-28T08:56:29;20.43;;;12.50;;
13122;SDS011;6627;50.920;12.050;2024-02-28T08:58:57;20.57;;;13.03;;
13122;SDS011;6627;50.920;12.050;2024-02-28T09:01:26;19.97;;;12.10;;
13122;SDS011;6627;50.920;12.050;2024-02-28T09:03:56;19.00;;;11.60;;
13122;SDS011;6627;50.920;12.050;2024-02-28T09:06:24;19.27;;;11.70;;
13122;SDS011;6627;50.920;12.050;2024-02-28T09:08:51;17.83;;;12.17;;
13122;SDS011;6627;50.920;12.050;2024-02-28T09:11:20;20.43;;;12.30;;
13122;SDS011;6627;50.920;12.050;2024-02-28T09:13:50;20.00;;;11.83;;
13122;SDS011;6627;50.920;12.050;2024-02-28T09:16:21;18.97;;;11.73;;
13122;SDS011;6627;50.920;12.050;2024-02-28T09:18:51;17.90;;;11.63;;
13122;SDS011;6627;50.920;12.050;2024-02-28T09:21:18;20.40;;;12.33;;
13122;SDS011;6627;50.920;12.050;2024-02-28T09:23:45;18.90;;;11.93;;
13122;SDS011;6627;50.920;12.050;2024-02-28T09:26:13;18.27;;;11.60;;
13122;SDS011;6627;50.920;12.050;2024-02-28T09:28:40;22.80;;;12.23;;
13122;SDS011;6627;50.920;12.050;2024-02-28T09:31:07;20.07;;;13.13;;
13122;SDS011;6627;50.920;12.050;2024-02-28T09:33:37;19.67;;;12.40;;
13122;SDS011;6627;50.920;12.050;2024-02-28T09:36:06;18.00;;;11.83;;
13122;SDS011;6627;50.920;12.050;2024-02-28T09:38:36;18.07;;;11.17;;
13122;SDS011;6627;50.920;12.050;2024-02-28T09:41:07;18.20;;;11.93;;
13122;SDS011;6627;50.920;12.050;2024-02-28T09:43:41;19.47;;;12.33;;
13122;SDS011;6627;50.920;12.050;2024-02-28T09:46:08;20.30;;;12.70;;
13122;SDS011;6627;50.920;12.050;2024-02-28T09:48:38;17.07;;;11.37;;
13122;SDS011;6627;50.920;12.050;2024-02-28T09:51:08;18.07;;;12.10;;
13122;SDS011;6627;50.920;12.050;2024-02-28T09:53:57;16.37;;;11.80;;
13122;SDS011;6627;50.920;12.050;2024-02-28T09:56:25;18.80;;;11.83;;
13122;SDS011;6627;50.920;12.050;2024-02-28T09:58:57;17.77;;;12.73;;
13122;SDS011;6627;50.920;12.050;2024-02-28T10:01:28;17.43;;;11.93;;
13122;SDS011;6627;50.920;12.050;2024-02-28T10:03:59;17.33;;;12.40;;
13122;SDS011;6627;50.920;12.050;2024-02-28T10:06:29;17.67;;;13.13;;
13122;SDS011;6627;50.920;12.050;2024-02-28T10:08:57;18.07;;;11.57;;
13122;SDS011;6627;50.920;12.050;2024-02-28T10:11:25;18.17;;;12.70;;
13122;SDS011;6627;50.920;12.050;2024-02-28T10:13:52;18.83;;;12.80;;
13122;SDS011;6627;50.920;12.050;2024-02-28T10:16:23;15.93;;;11.20;;
13122;SDS011;6627;50.920;12.050;2024-02-28T10:18:53;16.33;;;11.60;;
13122;SDS011;6627;50.920;12.050;2024-02-28T10:21:23;17.17;;;11.87;;
13122;SDS011;6627;50.920;12.050;2024-02-28T10:23:57;14.57;;;10.63;;
13122;SDS011;6627;50.920;12.050;2024-02-28T10:26:25;17.47;;;11.57;;
13122;SDS011;6627;50.920;12.050;2024-02-28T10:28:52;17.70;;;11.93;;
13122;SDS011;6627;50.920;12.050;2024-02-28T10:31:20;15.70;;;11.07;;
13122;SDS011;6627;50.920;12.050;2024-02-28T10:33:48;18.10;;;12.13;;
13122;SDS011;6627;50.920;12.050;2024-02-28T10:36:16;17.87;;;12.10;;
13122;SDS011;6627;50.920;12.050;2024-02-28T10:38:47;16.13;;;11.90;;
13122;SDS011;6627;50.920;12.050;2024-02-28T10:41:19;17.50;;;12.63;;
13122;SDS011;6627;50.920;12.050;2024-02-28T10:43:49;19.13;;;12.80;;
13122;SDS011;6627;50.920;12.050;2024-02-28T10:46:20;15.93;;;11.30;;
13122;SDS011;6627;50.920;12.050;2024-02-28T10:48:49;16.87;;;11.37;;
13122;SDS011;6627;50.920;12.050;2024-02-28T10:51:19;17.50;;;11.73;;
13122;SDS011;6627;50.920;12.050;2024-02-28T10:53:54;15.20;;;10.87;;
13122;SDS011;6627;50.920;12.050;2024-02-28T10:56:34;16.17;;;11.30;;
13122;SDS011;6627;50.920;12.050;2024-02-28T10:59:21;15.23;;;10.90;;
13122;SDS011;6627;50.920;12.050;2024-02-28T11:01:54;14.87;;;11.20;;
13122;SDS011;6627;50.920;12.050;2024-02-28T11:04:25;17.53;;;10.90;;
13122;SDS011;6627;50.920;12.050;2024-02-28T11:06:55;14.90;;;10.67;;
13122;SDS011;6627;50.920;12.050;2024-02-28T11:09:24;16.57;;;11.47;;
13122;SDS011;6627;50.920;12.050;2024-02-28T11:11:57;14.97;;;10.53;;
13122;SDS011;6627;50.920;12.050;2024-02-28T11:14:25;16.53;;;10.93;;
13122;SDS011;6627;50.920;12.050;2024-02-28T11:16:59;16.30;;;10.70;;
13122;SDS011;6627;50.920;12.050;2024-02-28T11:19:28;14.47;;;10.70;;
13122;SDS011;6627;50.920;12.050;2024-02-28T11:22:00;19.40;;;11.67;;
13122;SDS011;6627;50.920;12.050;2024-02-28T11:24:29;14.20;;;10.17;;
13122;SDS011;6627;50.920;12.050;2024-02-28T11:27:02;13.77;;;10.03;;
13122;SDS011;6627;50.920;12.050;2024-02-28T11:29:34;16.77;;;10.13;;
13122;SDS011;6627;50.920;12.050;2024-02-28T11:32:01;13.00;;;9.63;;
13122;SDS011;6627;50.920;12.050;2024-02-28T11:34:30;13.73;;;9.93;;
13122;SDS011;6627;50.920;12.050;2024-02-28T11:36:57;13.60;;;9.77;;
13122;SDS011;6627;50.920;12.050;2024-02-28T11:39:25;15.47;;;10.60;;
13122;SDS011;6627;50.920;12.050;2024-02-28T11:41:52;16.23;;;11.17;;
13122;SDS011;6627;50.920;12.050;2024-02-28T11:44:25;16.93;;;11.03;;
13122;SDS011;6627;50.920;12.050;2024-02-28T11:46:55;12.70;;;9.67;;
13122;SDS011;6627;50.920;12.050;2024-02-28T11:49:25;16.03;;;10.57;;
13122;SDS011;6627;50.920;12.050;2024-02-28T11:51:55;15.60;;;10.27;;
13122;SDS011;6627;50.920;12.050;2024-02-28T11:54:22;14.83;;;9.93;;
13122;SDS011;6627;50.920;12.050;2024-02-28T11:56:49;13.77;;;10.30;;
13122;SDS011;6627;50.920;12.050;2024-02-28T11:59:17;12.87;;;9.00;;
13122;SDS011;6627;50.920;12.050;2024-02-28T12:01:46;13.63;;;8.93;;
13122;SDS011;6627;50.920;12.050;2024-02-28T12:04:13;13.53;;;9.53;;
13122;SDS011;6627;50.920;12.050;2024-02-28T12:06:44;13.53;;;9.53;;
13122;SDS011;6627;50.920;12.050;2024-02-28T12:09:14;16.17;;;10.23;;
13122;SDS011;6627;50.920;12.050;2024-02-28T12:11:44;13.70;;;9.00;;
13122;SDS011;6627;50.920;12.050;2024-02-28T12:14:15;14.73;;;10.07;;
13122;SDS011;6627;50.920;12.050;2024-02-28T12:16:43;14.47;;;10.07;;
13122;SDS011;6627;50.920;12.050;2024-02-28T12:19:14;15.40;;;10.00;;
13122;SDS011;6627;50.920;12.050;2024-02-28T12:21:45;14.27;;;9.73;;
13122;SDS011;6627;50.920;12.050;2024-02-28T12:24:13;13.13;;;9.40;;
13122;SDS011;6627;50.920;12.050;2024-02-28T12:26:50;13.67;;;9.70;;
13122;SDS011;6627;50.920;12.050;2024-02-28T12:29:20;13.53;;;9.23;;
13122;SDS011;6627;50.920;12.050;2024-02-28T12:31:50;14.70;;;9.53;;
13122;SDS011;6627;50.920;12.050;2024-02-28T12:34:17;12.87;;;9.43;;
13122;SDS011;6627;50.920;12.050;2024-02-28T12:36:44;11.57;;;8.80;;
13122;SDS011;6627;50.920;12.050;2024-02-28T12:39:12;14.27;;;9.43;;
13122;SDS011;6627;50.920;12.050;2024-02-28T12:41:40;11.37;;;9.13;;
13122;SDS011;6627;50.920;12.050;2024-02-28T12:44:07;14.37;;;9.40;;
13122;SDS011;6627;50.920;12.050;2024-02-28T12:46:35;13.17;;;8.93;;
13122;SDS011;6627;50.920;12.050;2024-02-28T12:49:07;13.20;;;9.53;;
13122;SDS011;6627;50.920;12.050;2024-02-28T12:51:38;12.90;;;9.10;;
13122;SDS011;6627;50.920;12.050;2024-02-28T12:54:10;11.93;;;9.13;;
13122;SDS011;6627;50.920;12.050;2024-02-28T12:56:40;13.60;;;9.80;;
13122;SDS011;6627;50.920;12.050;2024-02-28T12:59:11;11.80;;;9.07;;
13122;SDS011;6627;50.920;12.050;2024-02-28T13:01:39;13.57;;;9.30;;
13122;SDS011;6627;50.920;12.050;2024-02-28T13:04:08;12.83;;;9.40;;
13122;SDS011;6627;50.920;12.050;2024-02-28T13:06:35;11.87;;;8.60;;
13122;SDS011;6627;50.920;12.050;2024-02-28T13:09:03;11.93;;;8.40;;
13122;SDS011;6627;50.920;12.050;2024-02-28T13:11:34;13.60;;;9.43;;
13122;SDS011;6627;50.920;12.050;2024-02-28T13:14:04;12.47;;;8.30;;
13122;SDS011;6627;50.920;12.050;2024-02-28T13:16:36;11.83;;;8.87;;
13122;SDS011;6627;50.920;12.050;2024-02-28T13:19:09;11.17;;;9.03;;
13122;SDS011;6627;50.920;12.050;2024-02-28T13:21:36;11.33;;;8.53;;
13122;SDS011;6627;50.920;12.050;2024-02-28T13:24:05;11.60;;;8.87;;
13122;SDS011;6627;50.920;12.050;2024-02-28T13:26:32;13.57;;;8.20;;
13122;SDS011;6627;50.920;12.050;2024-02-28T13:29:00;13.03;;;9.03;;
13122;SDS011;6627;50.920;12.050;2024-02-28T13:31:27;12.07;;;8.90;;
13122;SDS011;6627;50.920;12.050;2024-02-28T13:33:56;11.93;;;9.87;;
13122;SDS011;6627;50.920;12.050;2024-02-28T13:36:27;11.13;;;8.70;;
13122;SDS011;6627;50.920;12.050;2024-02-28T13:38:56;11.23;;;8.53;;
13122;SDS011;6627;50.920;12.050;2024-02-28T13:41:26;10.77;;;8.90;;
13122;SDS011;6627;50.920;12.050;2024-02-28T13:43:53;11.90;;;9.30;;
13122;SDS011;6627;50.920;12.050;2024-02-28T13:46:20;10.80;;;9.33;;
13122;SDS011;6627;50.920;12.050;2024-02-28T13:48:47;12.73;;;9.47;;
13122;SDS011;6627;50.920;12.050;2024-02-28T13:51:15;12.67;;;9.30;;
13122;SDS011;6627;50.920;12.050;2024-02-28T13:53:44;12.43;;;9.27;;
13122;SDS011;6627;50.920;12.050;2024-02-28T13:56:13;11.27;;;9.13;;
13122;SDS011;6627;50.920;12.050;2024-02-28T13:58:43;12.53;;;9.47;;
13122;SDS011;6627;50.920;12.050;2024-02-28T14:01:15;12.30;;;8.90;;
13122;SDS011;6627;50.920;12.050;2024-02-28T14:03:47;12.70;;;9.70;;
13122;SDS011;6627;50.920;12.050;2024-02-28T14:06:15;12.63;;;8.30;;
13122;SDS011;6627;50.920;12.050;2024-02-28T14:08:43;10.83;;;8.70;;
13122;SDS011;6627;50.920;12.050;2024-02-28T14:11:11;11.97;;;9.07;;
13122;SDS011;6627;50.920;12.050;2024-02-28T14:13:41;12.37;;;9.33;;
13122;SDS011;6627;50.920;12.050;2024-02-28T14:16:14;12.33;;;8.93;;
13122;SDS011;6627;50.920;12.050;2024-02-28T14:18:45;12.20;;;8.93;;
13122;SDS011;6627;50.920;12.050;2024-02-28T14:21:16;10.93;;;8.80;;
13122;SDS011;6627;50.920;12.050;2024-02-28T14:23:47;10.83;;;8.80;;
13122;SDS011;6627;50.920;12.050;2024-02-28T14:26:17;11.60;;;10.03;;
13122;SDS011;6627;50.920;12.050;2024-02-28T14:28:45;10.90;;;8.63;;
13122;SDS011;6627;50.920;12.050;2024-02-28T14:31:12;13.07;;;9.70;;
13122;SDS011;6627;50.920;12.050;2024-02-28T14:33:39;10.67;;;8.60;;